Time;durP1;ratioP1;P1;durP2;ratioP2;P2;SDS_P1;SDS_P2;PMS_P1;PMS_P2;Temp;Humidity;BMP_temperature;BMP_pressure;BME280_temperature;BME280_humidity;BME280_pressure;Samples;Min_cycle;Max_cycle;Signal;HPM_P1;HPM_P2
2024/01/21 00:02:25;;;;;;;3.28;1.35;;;1.90;68.40;;;;;;5075631;28;20704;-80
2024/01/21 00:04:52;;;;;;;0.50;0.50;;;2.00;68.80;;;;;;5076832;28;20194;-81
2024/01/21 00:07:19;;;;;;;0.63;0.60;;;1.90;68.90;;;;;;5075499;28;20205;-82
2024/01/21 00:09:46;;;;;;;0.60;0.60;;;2.00;68.20;;;;;;5076546;28;20206;-81
2024/01/21 00:12:12;;;;;;;0.60;0.60;;;2.10;67.50;;;;;;5075853;28;20228;-82
2024/01/21 00:14:40;;;;;;;0.90;0.50;;;2.10;68.60;;;;;;5067034;28;20694;-80
2024/01/21 00:17:07;;;;;;;2.17;0.80;;;2.10;68.70;;;;;;5075284;28;20209;-81
2024/01/21 00:19:34;;;;;;;3.80;1.27;;;2.10;67.40;;;;;;5074614;28;20260;-82
2024/01/21 00:22:01;;;;;;;1.77;1.50;;;2.10;67.40;;;;;;5075217;28;20218;-79
2024/01/21 00:24:27;;;;;;;1.30;0.70;;;2.10;67.00;;;;;;5074494;28;20198;-80
2024/01/21 00:26:54;;;;;;;0.50;0.40;;;2.20;67.00;;;;;;5075547;28;20194;-80
2024/01/21 00:29:21;;;;;;;0.50;0.50;;;2.20;67.50;;;;;;5075370;28;20676;-80
2024/01/21 00:31:49;;;;;;;0.80;0.68;;;2.20;67.00;;;;;;5075009;28;20233;-80
2024/01/21 00:34:16;;;;;;;0.60;0.60;;;2.20;66.50;;;;;;5074694;28;20209;-78
2024/01/21 00:36:42;;;;;;;0.77;0.77;;;2.30;65.90;;;;;;5074890;28;20222;-81
2024/01/21 00:39:09;;;;;;;2.85;1.00;;;2.30;66.90;;;;;;5075245;28;20209;-80
2024/01/21 00:41:36;;;;;;;0.95;0.95;;;2.30;66.40;;;;;;5074688;28;22948;-81
2024/01/21 00:44:03;;;;;;;1.67;1.30;;;2.40;66.50;;;;;;5074723;28;20204;-82
2024/01/21 00:46:30;;;;;;;1.40;1.30;;;2.40;66.10;;;;;;5075009;28;20203;-81
2024/01/21 00:48:59;;;;;;;3.38;0.80;;;2.40;65.40;;;;;;5074966;28;20328;-80
2024/01/21 00:51:26;;;;;;;0.60;0.60;;;2.40;65.60;;;;;;5074414;28;20248;-82
2024/01/21 00:53:53;;;;;;;1.00;0.90;;;2.40;66.40;;;;;;5074744;28;20217;-80
2024/01/21 00:56:20;;;;;;;1.05;0.90;;;2.40;66.20;;;;;;5074428;28;20282;-81
2024/01/21 00:58:46;;;;;;;0.82;0.82;;;2.40;66.30;;;;;;5074562;28;20205;-82
2024/01/21 01:01:13;;;;;;;4.20;1.35;;;2.40;66.90;;;;;;5074055;28;20218;-81
2024/01/21 01:03:40;;;;;;;0.50;0.50;;;2.40;66.50;;;;;;5074386;28;20198;-80
2024/01/21 01:06:08;;;;;;;1.67;1.40;;;2.40;66.90;;;;;;5074668;28;20217;-81
2024/01/21 01:08:34;;;;;;;0.60;0.50;;;2.40;67.20;;;;;;5074862;28;20285;-81
2024/01/21 01:11:01;;;;;;;0.90;0.75;;;2.30;67.40;;;;;;5074320;28;20222;-81
2024/01/21 01:13:28;;;;;;;0.93;0.93;;;2.30;67.60;;;;;;5074195;28;20552;-81
2024/01/21 01:15:55;;;;;;;3.22;1.65;;;2.40;67.30;;;;;;5074130;28;20218;-80
2024/01/21 01:18:22;;;;;;;0.70;0.70;;;2.40;67.20;;;;;;5074248;28;20205;-82
2024/01/21 01:20:49;;;;;;;1.40;1.25;;;2.30;67.50;;;;;;5078184;28;20248;-82
2024/01/21 01:23:17;;;;;;;3.17;1.67;;;2.40;67.80;;;;;;5078281;28;20222;-80
2024/01/21 01:25:43;;;;;;;1.70;1.00;;;2.30;68.10;;;;;;5077670;28;20708;-80
2024/01/21 01:28:10;;;;;;;0.77;0.77;;;2.30;67.90;;;;;;5077481;28;20202;-81
2024/01/21 01:30:37;;;;;;;0.80;0.70;;;2.30;68.00;;;;;;5076896;28;20226;-82
2024/01/21 01:33:04;;;;;;;1.25;1.17;;;2.30;67.50;;;;;;5078358;28;20194;-80
2024/01/21 01:35:31;;;;;;;0.50;0.43;;;2.30;67.30;;;;;;5077126;28;20214;-80
2024/01/21 01:37:57;;;;;;;1.20;1.20;;;2.30;67.80;;;;;;5077977;28;20202;-79
2024/01/21 01:40:25;;;;;;;1.98;1.80;;;2.40;66.80;;;;;;5077731;28;20218;-81
2024/01/21 01:42:57;;;;;;;3.95;1.80;;;2.40;67.30;;;;;;5077999;28;20203;-80
2024/01/21 01:45:24;;;;;;;0.90;0.90;;;2.40;67.30;;;;;;5077190;28;20258;-81
2024/01/21 01:47:51;;;;;;;0.55;0.55;;;2.30;67.50;;;;;;5077190;28;20217;-81
2024/01/21 01:50:19;;;;;;;1.30;0.60;;;2.30;68.10;;;;;;5077044;28;20230;-80
2024/01/21 01:52:46;;;;;;;0.70;0.50;;;2.30;69.40;;;;;;5077616;28;20199;-80
2024/01/21 01:55:14;;;;;;;1.20;1.10;;;2.30;68.80;;;;;;5087280;28;20218;-79
2024/01/21 01:57:42;;;;;;;1.73;1.42;;;2.30;68.80;;;;;;5079304;28;20198;-83
2024/01/21 02:00:09;;;;;;;2.15;0.75;;;2.30;69.30;;;;;;5078082;28;20222;-83
2024/01/21 02:02:37;;;;;;;0.50;0.40;;;2.20;69.60;;;;;;5078139;28;20209;-82
2024/01/21 02:05:05;;;;;;;1.60;1.40;;;2.10;70.30;;;;;;5078382;28;20654;-82
2024/01/21 02:07:31;;;;;;;1.48;1.10;;;2.10;70.60;;;;;;5078435;28;20191;-82
2024/01/21 02:09:59;;;;;;;0.60;0.50;;;2.10;71.10;;;;;;5078630;28;20191;-82
2024/01/21 02:12:26;;;;;;;0.68;0.68;;;2.00;71.90;;;;;;5078078;28;20198;-82
2024/01/21 02:14:54;;;;;;;8.52;4.25;;;2.00;72.60;;;;;;5078539;28;20650;-80
2024/01/21 02:17:21;;;;;;;3.90;1.15;;;1.90;72.80;;;;;;5078186;28;20205;-81
2024/01/21 02:19:47;;;;;;;1.08;1.02;;;1.90;72.80;;;;;;5077858;28;20191;-83
2024/01/21 02:22:15;;;;;;;2.42;2.08;;;1.90;73.40;;;;;;5078387;28;20195;-81
2024/01/21 02:24:43;;;;;;;1.83;1.73;;;1.90;73.80;;;;;;5077952;28;20191;-83
2024/01/21 02:27:09;;;;;;;3.10;2.10;;;1.90;73.00;;;;;;5078018;28;20190;-82
2024/01/21 02:29:36;;;;;;;3.40;1.73;;;1.90;73.10;;;;;;5078413;28;20213;-80
2024/01/21 02:32:03;;;;;;;5.38;3.33;;;1.90;73.80;;;;;;5077831;28;20592;-81
2024/01/21 02:34:31;;;;;;;1.95;0.80;;;1.80;73.60;;;;;;5077557;28;20190;-83
2024/01/21 02:36:57;;;;;;;3.33;1.70;;;1.80;73.80;;;;;;5078344;28;20301;-81
2024/01/21 02:39:24;;;;;;;0.60;0.50;;;1.90;73.30;;;;;;5077541;28;20684;-82
2024/01/21 02:41:52;;;;;;;1.35;1.05;;;1.90;73.50;;;;;;5077375;28;20214;-80
2024/01/21 02:44:19;;;;;;;2.47;1.00;;;1.90;73.40;;;;;;5078007;28;20191;-82
2024/01/21 02:46:46;;;;;;;1.48;1.35;;;1.90;73.00;;;;;;5078284;28;20225;-80
2024/01/21 02:49:12;;;;;;;1.55;1.17;;;2.00;72.90;;;;;;5077842;28;20195;-83
2024/01/21 02:51:39;;;;;;;1.88;1.58;;;2.00;72.90;;;;;;5077138;28;20590;-82
2024/01/21 02:54:06;;;;;;;1.38;1.27;;;2.00;73.10;;;;;;5078169;28;20190;-82
2024/01/21 02:56:32;;;;;;;9.15;1.95;;;2.00;73.20;;;;;;5077347;28;20215;-82
2024/01/21 02:59:00;;;;;;;4.27;2.03;;;2.00;73.30;;;;;;5077737;28;20607;-78
2024/01/21 03:01:27;;;;;;;3.20;2.05;;;2.00;72.80;;;;;;5077582;28;20460;-83
2024/01/21 03:03:53;;;;;;;0.80;0.75;;;2.00;73.40;;;;;;5077067;28;20217;-80
2024/01/21 03:06:20;;;;;;;2.88;1.13;;;2.00;73.20;;;;;;5076982;28;20197;-81
2024/01/21 03:08:47;;;;;;;1.92;0.70;;;2.00;72.80;;;;;;5077468;28;20198;-82
2024/01/21 03:11:14;;;;;;;1.88;1.77;;;2.00;73.30;;;;;;5075872;28;20223;-80
2024/01/21 03:13:41;;;;;;;1.40;1.30;;;2.00;72.90;;;;;;5076355;28;20194;-81
2024/01/21 03:16:09;;;;;;;1.08;0.98;;;2.00;73.70;;;;;;5076304;28;20206;-81
2024/01/21 03:18:38;;;;;;;1.30;1.13;;;2.00;72.80;;;;;;5075582;28;20210;-79
2024/01/21 03:21:06;;;;;;;4.80;1.63;;;2.00;72.30;;;;;;5075752;28;20317;-80
2024/01/21 03:23:32;;;;;;;1.58;1.48;;;2.00;72.40;;;;;;5075712;28;20198;-79
2024/01/21 03:25:59;;;;;;;1.80;1.08;;;2.00;73.40;;;;;;5075717;28;20201;-79
2024/01/21 03:28:26;;;;;;;2.35;1.85;;;2.00;72.50;;;;;;5082034;28;20207;-79
2024/01/21 03:30:53;;;;;;;6.18;2.95;;;2.00;73.10;;;;;;5084776;28;20209;-79
2024/01/21 03:33:22;;;;;;;2.20;1.20;;;2.00;72.40;;;;;;5084206;28;20217;-78
2024/01/21 03:35:49;;;;;;;1.15;1.15;;;2.00;72.90;;;;;;5083032;28;20221;-78
2024/01/21 03:38:16;;;;;;;2.00;1.45;;;2.00;73.20;;;;;;5085652;28;20197;-79
2024/01/21 03:40:42;;;;;;;0.60;0.50;;;2.00;73.00;;;;;;5084814;28;20215;-78
2024/01/21 03:43:09;;;;;;;1.23;1.00;;;2.00;74.00;;;;;;5085182;28;20194;-78
2024/01/21 03:45:36;;;;;;;1.83;1.70;;;2.00;72.60;;;;;;5085850;28;20198;-78
2024/01/21 03:48:03;;;;;;;2.83;1.65;;;2.00;72.10;;;;;;5085933;28;20191;-78
2024/01/21 03:50:31;;;;;;;1.23;0.82;;;2.00;72.40;;;;;;5084333;28;20264;-79
2024/01/21 03:52:59;;;;;;;0.50;0.40;;;2.00;71.90;;;;;;5085458;28;20228;-79
2024/01/21 03:55:25;;;;;;;1.60;0.95;;;2.00;73.30;;;;;;5085230;28;20195;-79
2024/01/21 03:57:52;;;;;;;0.50;0.47;;;2.00;72.10;;;;;;5083505;28;20198;-81
2024/01/21 04:00:19;;;;;;;0.80;0.80;;;2.10;71.40;;;;;;5077229;28;20713;-81
2024/01/21 04:02:46;;;;;;;1.02;0.93;;;2.10;71.30;;;;;;5078124;28;20206;-82
2024/01/21 04:05:13;;;;;;;0.60;0.60;;;2.20;71.20;;;;;;5078410;28;20194;-83
2024/01/21 04:07:41;;;;;;;0.50;0.50;;;2.10;71.70;;;;;;5080444;28;20191;-80
2024/01/21 04:10:09;;;;;;;2.42;1.58;;;2.20;71.40;;;;;;5078939;28;20222;-82
2024/01/21 04:12:36;;;;;;;3.92;1.92;;;2.20;70.80;;;;;;5076522;28;20206;-81
2024/01/21 04:15:04;;;;;;;0.85;0.85;;;2.30;70.20;;;;;;5077063;28;20202;-80
2024/01/21 04:17:31;;;;;;;3.42;1.17;;;2.20;70.50;;;;;;5076587;28;20240;-82
2024/01/21 04:19:57;;;;;;;0.50;0.45;;;2.20;70.70;;;;;;5076694;28;20194;-80
2024/01/21 04:22:24;;;;;;;1.55;1.05;;;2.20;70.80;;;;;;5076345;28;20198;-81
2024/01/21 04:24:52;;;;;;;4.15;1.40;;;2.20;70.10;;;;;;5076324;28;20598;-82
2024/01/21 04:27:19;;;;;;;2.28;1.67;;;2.20;70.90;;;;;;5076470;28;20661;-82
2024/01/21 04:29:46;;;;;;;1.90;1.63;;;2.30;70.20;;;;;;5076338;28;20209;-82
2024/01/21 04:32:12;;;;;;;2.10;1.90;;;2.30;70.60;;;;;;5076076;28;20194;-82
2024/01/21 04:34:39;;;;;;;1.35;1.02;;;2.30;70.80;;;;;;5076035;28;20201;-81
2024/01/21 04:37:06;;;;;;;1.02;1.02;;;2.30;70.90;;;;;;5076352;28;20217;-82
2024/01/21 04:39:33;;;;;;;0.95;0.95;;;2.30;70.60;;;;;;5077229;28;20197;-81
2024/01/21 04:42:01;;;;;;;1.27;1.17;;;2.30;70.70;;;;;;5076449;28;20224;-82
2024/01/21 04:44:28;;;;;;;3.08;1.08;;;2.30;70.50;;;;;;5076019;28;20198;-81
2024/01/21 04:46:54;;;;;;;1.25;1.15;;;2.30;70.70;;;;;;5075792;28;20195;-82
2024/01/21 04:49:21;;;;;;;1.40;1.30;;;2.30;70.60;;;;;;5076806;28;20194;-81
2024/01/21 04:51:48;;;;;;;1.15;1.05;;;2.30;70.60;;;;;;5076343;28;20225;-81
2024/01/21 04:54:14;;;;;;;1.17;1.05;;;2.30;70.40;;;;;;5077508;28;20650;-81
2024/01/21 04:56:41;;;;;;;4.70;2.63;;;2.30;70.40;;;;;;5080206;28;20211;-80
2024/01/21 04:59:10;;;;;;;1.30;1.20;;;2.30;70.30;;;;;;5080424;28;20202;-81
2024/01/21 05:01:39;;;;;;;0.85;0.85;;;2.30;70.40;;;;;;5080026;28;20214;-82
2024/01/21 05:04:05;;;;;;;0.52;0.52;;;2.30;70.90;;;;;;5079993;28;20248;-81
2024/01/21 05:06:32;;;;;;;3.90;1.40;;;2.30;70.90;;;;;;5079813;28;20190;-82
2024/01/21 05:08:59;;;;;;;4.15;1.55;;;2.30;70.70;;;;;;5079521;28;20573;-80
2024/01/21 05:11:26;;;;;;;2.75;2.05;;;2.30;71.00;;;;;;5079250;28;20224;-80
2024/01/21 05:13:52;;;;;;;5.43;2.65;;;2.30;71.00;;;;;;5079511;28;20204;-80
2024/01/21 05:16:20;;;;;;;6.90;2.40;;;2.30;70.80;;;;;;5079657;28;20225;-81
2024/01/21 05:18:47;;;;;;;5.43;2.05;;;2.30;72.00;;;;;;5079028;28;20213;-82
2024/01/21 05:21:19;;;;;;;2.17;1.70;;;2.20;72.40;;;;;;5078967;28;20715;-82
2024/01/21 05:23:46;;;;;;;1.25;1.15;;;2.20;71.90;;;;;;5079313;28;20206;-82
2024/01/21 05:26:12;;;;;;;2.15;1.55;;;2.10;72.30;;;;;;5079576;28;20195;-81
2024/01/21 05:28:40;;;;;;;3.15;1.90;;;2.10;72.80;;;;;;5078893;28;20674;-82
2024/01/21 05:31:07;;;;;;;0.60;0.60;;;2.10;72.50;;;;;;5078604;28;20304;-82
2024/01/21 05:33:35;;;;;;;2.00;1.50;;;2.10;72.50;;;;;;5079161;28;20672;-81
2024/01/21 05:36:02;;;;;;;1.15;1.05;;;2.10;72.40;;;;;;5078628;28;20203;-82
2024/01/21 05:38:28;;;;;;;1.67;1.35;;;2.10;73.90;;;;;;5080277;28;20195;-80
2024/01/21 05:40:55;;;;;;;1.25;1.17;;;2.10;73.00;;;;;;5082475;28;20740;-82
2024/01/21 05:43:22;;;;;;;3.80;1.88;;;2.10;73.00;;;;;;5082886;28;20201;-79
2024/01/21 05:45:48;;;;;;;1.20;0.98;;;2.10;72.90;;;;;;5079705;28;20198;-81
2024/01/21 05:48:15;;;;;;;3.28;1.55;;;2.20;72.90;;;;;;5078918;28;20191;-82
2024/01/21 05:50:43;;;;;;;1.95;1.85;;;2.20;72.90;;;;;;5078630;28;20214;-81
2024/01/21 05:53:10;;;;;;;1.45;1.33;;;2.20;72.80;;;;;;5070640;28;20206;-82
2024/01/21 05:55:37;;;;;;;2.15;1.58;;;2.20;73.30;;;;;;5079073;28;20209;-81
2024/01/21 05:58:04;;;;;;;0.82;0.82;;;2.20;73.90;;;;;;5078336;28;20268;-82
2024/01/21 06:00:31;;;;;;;0.88;0.88;;;2.10;74.00;;;;;;5079144;28;20228;-81
2024/01/21 06:02:57;;;;;;;1.05;0.95;;;2.10;74.20;;;;;;5078105;28;20218;-82
2024/01/21 06:05:24;;;;;;;0.93;0.93;;;2.10;74.60;;;;;;5080430;28;20190;-82
2024/01/21 06:07:52;;;;;;;2.17;2.05;;;2.00;75.00;;;;;;5080453;28;20199;-80
2024/01/21 06:10:19;;;;;;;0.60;0.60;;;2.00;75.40;;;;;;5079662;28;20220;-81
2024/01/21 06:12:45;;;;;;;1.13;0.68;;;2.00;75.80;;;;;;5078024;28;20795;-81
2024/01/21 06:15:12;;;;;;;1.13;0.75;;;2.10;75.10;;;;;;5078818;28;20205;-82
2024/01/21 06:17:39;;;;;;;2.72;2.53;;;2.00;76.00;;;;;;5077957;28;20210;-81
2024/01/21 06:20:07;;;;;;;1.75;1.33;;;2.00;76.00;;;;;;5078060;28;20207;-82
2024/01/21 06:22:35;;;;;;;4.00;1.17;;;2.00;75.60;;;;;;5078324;28;20194;-80
2024/01/21 06:25:04;;;;;;;1.27;1.10;;;2.00;76.10;;;;;;5078113;28;20209;-81
2024/01/21 06:27:31;;;;;;;1.65;1.55;;;2.00;76.60;;;;;;5077948;28;20194;-82
2024/01/21 06:29:58;;;;;;;6.78;3.08;;;2.00;77.10;;;;;;5077532;28;20328;-81
2024/01/21 06:32:25;;;;;;;2.85;1.15;;;2.00;76.80;;;;;;5078709;28;20621;-82
2024/01/21 06:34:52;;;;;;;1.88;1.67;;;2.10;77.30;;;;;;5078058;28;20199;-80
2024/01/21 06:37:18;;;;;;;2.25;1.67;;;2.00;77.00;;;;;;5078648;28;20218;-82
2024/01/21 06:39:45;;;;;;;0.60;0.60;;;2.00;77.80;;;;;;5078215;28;20202;-82
2024/01/21 06:42:13;;;;;;;11.82;1.50;;;2.00;77.80;;;;;;5077980;28;20274;-82
2024/01/21 06:44:41;;;;;;;1.73;1.58;;;2.00;78.00;;;;;;5077852;28;20686;-82
2024/01/21 06:47:08;;;;;;;1.92;1.58;;;2.10;78.50;;;;;;5077784;28;20191;-82
2024/01/21 06:49:35;;;;;;;5.32;3.15;;;2.10;79.20;;;;;;5077117;28;20195;-81
2024/01/21 06:52:01;;;;;;;2.00;1.25;;;2.00;78.90;;;;;;5077123;28;20229;-82
2024/01/21 06:54:28;;;;;;;5.80;1.20;;;2.00;79.40;;;;;;5077982;28;20202;-82
2024/01/21 06:56:55;;;;;;;1.17;1.08;;;2.00;79.80;;;;;;5077349;28;20218;-80
2024/01/21 06:59:23;;;;;;;7.82;2.25;;;2.00;79.70;;;;;;5077840;28;20195;-80
2024/01/21 07:01:50;;;;;;;1.63;1.10;;;2.00;80.80;;;;;;5077366;28;20218;-82
2024/01/21 07:04:18;;;;;;;0.80;0.80;;;2.00;81.10;;;;;;5077696;28;20198;-82
2024/01/21 07:06:45;;;;;;;4.88;1.98;;;1.90;81.40;;;;;;5077924;28;20199;-82
2024/01/21 07:09:13;;;;;;;0.52;0.50;;;1.90;81.90;;;;;;5077654;28;20198;-80
2024/01/21 07:11:41;;;;;;;2.35;2.15;;;1.90;82.50;;;;;;5077198;28;20222;-82
2024/01/21 07:14:08;;;;;;;3.45;2.50;;;1.90;82.90;;;;;;5077525;28;20194;-80
2024/01/21 07:16:36;;;;;;;1.75;1.65;;;1.80;83.60;;;;;;5076764;28;20578;-82
2024/01/21 07:19:03;;;;;;;1.30;1.20;;;1.80;84.20;;;;;;5078371;28;20202;-82
2024/01/21 07:21:30;;;;;;;1.58;1.48;;;1.80;85.00;;;;;;5079958;28;20244;-79
2024/01/21 07:23:57;;;;;;;2.17;1.05;;;1.80;85.00;;;;;;5080464;28;20582;-82
2024/01/21 07:26:24;;;;;;;2.00;0.85;;;1.70;85.40;;;;;;5079386;28;20190;-82
2024/01/21 07:28:51;;;;;;;1.85;1.75;;;1.70;86.10;;;;;;5079077;28;20205;-80
2024/01/21 07:31:18;;;;;;;4.75;2.85;;;1.70;86.00;;;;;;5078142;28;20214;-82
2024/01/21 07:33:46;;;;;;;0.50;0.50;;;1.70;85.80;;;;;;5078338;28;20205;-83
2024/01/21 07:36:13;;;;;;;2.53;1.38;;;1.70;86.30;;;;;;5078882;28;20194;-82
2024/01/21 07:38:39;;;;;;;1.85;1.70;;;1.80;86.60;;;;;;5078131;28;20210;-82
2024/01/21 07:41:06;;;;;;;2.72;2.33;;;1.80;86.80;;;;;;5078515;28;20249;-82
2024/01/21 07:43:33;;;;;;;4.82;2.15;;;1.80;87.00;;;;;;5077928;28;20198;-80
2024/01/21 07:46:00;;;;;;;0.80;0.70;;;1.80;87.40;;;;;;5078121;28;20211;-80
2024/01/21 07:48:26;;;;;;;4.47;3.53;;;1.80;87.70;;;;;;5078968;28;20197;-82
2024/01/21 07:50:55;;;;;;;3.38;1.77;;;1.70;88.00;;;;;;5078029;28;20906;-82
2024/01/21 07:53:22;;;;;;;2.88;2.15;;;1.70;89.30;;;;;;5078631;28;20397;-82
2024/01/21 07:55:49;;;;;;;1.55;1.45;;;1.70;88.40;;;;;;5078601;28;20205;-82
2024/01/21 07:58:15;;;;;;;2.05;1.48;;;1.70;89.10;;;;;;5078536;28;20228;-83
2024/01/21 08:00:42;;;;;;;1.15;0.82;;;1.70;89.60;;;;;;5078728;28;20641;-82
2024/01/21 08:03:09;;;;;;;3.10;1.50;;;1.70;90.50;;;;;;5078908;28;20698;-83
2024/01/21 08:05:36;;;;;;;1.10;1.00;;;1.70;90.40;;;;;;5077985;28;20195;-80
2024/01/21 08:08:05;;;;;;;3.70;2.90;;;1.70;90.70;;;;;;5076963;28;20658;-81
2024/01/21 08:10:32;;;;;;;2.67;1.75;;;1.70;90.70;;;;;;5077441;28;20220;-82
2024/01/21 08:12:59;;;;;;;2.65;1.95;;;1.70;90.60;;;;;;5077499;28;20572;-79
2024/01/21 08:15:26;;;;;;;2.55;2.28;;;1.70;90.60;;;;;;5069977;28;20199;-82
2024/01/21 08:17:52;;;;;;;12.80;3.60;;;1.70;90.90;;;;;;5077240;28;20218;-82
2024/01/21 08:20:19;;;;;;;7.07;3.80;;;1.70;91.10;;;;;;5077554;28;20215;-80
2024/01/21 08:22:46;;;;;;;1.58;1.48;;;1.70;91.10;;;;;;5082538;28;20278;-78
2024/01/21 08:25:14;;;;;;;6.18;1.42;;;1.70;91.10;;;;;;5086183;28;20202;-78
2024/01/21 08:27:42;;;;;;;1.23;1.13;;;1.80;91.20;;;;;;5079761;28;20214;-82
2024/01/21 08:30:10;;;;;;;2.40;2.20;;;1.80;90.70;;;;;;5081419;28;20244;-81
2024/01/21 08:32:37;;;;;;;3.95;2.75;;;1.80;90.70;;;;;;5081783;28;20650;-79
2024/01/21 08:35:05;;;;;;;1.35;1.15;;;1.90;90.80;;;;;;5082053;28;20693;-81
2024/01/21 08:37:31;;;;;;;1.58;1.15;;;1.90;91.00;;;;;;5080821;28;20214;-82
2024/01/21 08:39:58;;;;;;;1.75;1.10;;;1.90;90.80;;;;;;5081728;28;20213;-82
2024/01/21 08:42:27;;;;;;;6.28;3.47;;;2.00;90.40;;;;;;5081079;28;20195;-82
2024/01/21 08:44:54;;;;;;;0.90;0.80;;;2.00;90.40;;;;;;5080870;28;20198;-82
2024/01/21 08:47:20;;;;;;;2.25;1.77;;;2.10;90.30;;;;;;5081718;28;20547;-81
2024/01/21 08:49:48;;;;;;;6.43;5.55;;;2.20;90.10;;;;;;5081540;28;20209;-82
2024/01/21 08:52:14;;;;;;;4.97;2.25;;;2.20;90.10;;;;;;5082577;28;20293;-81
2024/01/21 08:54:41;;;;;;;6.30;2.78;;;2.20;90.50;;;;;;5082428;28;20194;-81
2024/01/21 08:57:08;;;;;;;2.70;2.50;;;2.10;90.50;;;;;;5082141;28;20194;-82
2024/01/21 08:59:36;;;;;;;1.20;1.00;;;2.10;90.70;;;;;;5082225;28;20377;-82
2024/01/21 09:02:03;;;;;;;2.15;1.45;;;2.10;91.30;;;;;;5081620;28;20218;-81
2024/01/21 09:04:30;;;;;;;3.05;1.70;;;2.20;91.20;;;;;;5072398;28;20726;-81
2024/01/21 09:06:56;;;;;;;4.68;3.33;;;2.20;91.00;;;;;;5080718;28;20204;-82
2024/01/21 09:09:23;;;;;;;0.60;0.60;;;2.40;91.10;;;;;;5080480;28;20210;-80
2024/01/21 09:11:51;;;;;;;3.75;3.45;;;2.40;90.90;;;;;;5079810;28;20233;-82
2024/01/21 09:14:18;;;;;;;3.25;2.95;;;2.70;90.70;;;;;;5080122;28;20226;-83
2024/01/21 09:16:46;;;;;;;2.35;2.17;;;2.80;90.40;;;;;;5080692;28;20198;-82
2024/01/21 09:19:13;;;;;;;5.03;3.58;;;2.60;90.50;;;;;;5079897;28;20218;-82
2024/01/21 09:21:40;;;;;;;2.05;1.95;;;2.50;90.80;;;;;;5079984;28;20220;-80
2024/01/21 09:24:07;;;;;;;3.58;1.92;;;2.50;91.10;;;;;;5080646;28;20202;-80
2024/01/21 09:26:35;;;;;;;5.32;3.63;;;2.50;91.30;;;;;;5080393;28;20220;-80
2024/01/21 09:29:02;;;;;;;1.73;1.52;;;2.60;91.10;;;;;;5079714;28;20198;-81
2024/01/21 09:31:28;;;;;;;1.15;1.13;;;2.60;91.30;;;;;;5079832;28;20285;-82
2024/01/21 09:33:57;;;;;;;2.63;2.05;;;2.70;90.90;;;;;;5080357;28;20202;-80
2024/01/21 09:36:24;;;;;;;2.75;1.92;;;2.80;90.40;;;;;;5079518;28;20194;-82
2024/01/21 09:38:52;;;;;;;12.63;3.40;;;2.80;90.70;;;;;;5078983;28;20214;-82
2024/01/21 09:41:26;;;;;;;4.43;2.88;;;2.80;90.80;;;;;;5078779;28;20219;-81
2024/01/21 09:43:53;;;;;;;3.40;2.53;;;2.80;90.30;;;;;;5080499;28;20205;-82
2024/01/21 09:46:19;;;;;;;1.85;1.00;;;2.80;90.20;;;;;;5079540;28;20206;-80
2024/01/21 09:48:48;;;;;;;0.50;0.50;;;2.80;90.20;;;;;;5080469;28;20552;-80
2024/01/21 09:51:17;;;;;;;1.30;1.13;;;2.80;90.10;;;;;;5079356;28;20225;-82
2024/01/21 09:53:44;;;;;;;5.13;3.28;;;2.90;90.50;;;;;;5079561;28;20202;-81
2024/01/21 09:56:11;;;;;;;2.33;2.13;;;2.80;90.50;;;;;;5079695;28;20225;-82
2024/01/21 09:58:45;;;;;;;4.35;2.42;;;2.90;91.00;;;;;;5079662;28;20206;-81
2024/01/21 10:01:12;;;;;;;6.78;5.35;;;3.00;91.40;;;;;;5080099;28;20223;-81
2024/01/21 10:03:39;;;;;;;1.35;1.00;;;3.00;91.30;;;;;;5080446;28;20201;-80
2024/01/21 10:06:06;;;;;;;2.08;1.95;;;3.10;91.60;;;;;;5079083;28;20202;-81
2024/01/21 10:08:36;;;;;;;4.32;1.40;;;3.20;92.00;;;;;;5079967;28;20187;-80
2024/01/21 10:11:03;;;;;;;3.80;2.22;;;3.40;91.90;;;;;;5081239;28;20241;-82
2024/01/21 10:13:31;;;;;;;5.82;3.00;;;3.40;92.10;;;;;;5080533;28;20302;-82
2024/01/21 10:15:58;;;;;;;1.98;1.88;;;3.50;92.20;;;;;;5080491;28;20224;-81
2024/01/21 10:18:26;;;;;;;2.70;1.15;;;3.50;93.10;;;;;;5079364;28;20214;-81
2024/01/21 10:20:53;;;;;;;5.18;2.47;;;3.60;93.10;;;;;;5080352;28;20226;-81
2024/01/21 10:23:20;;;;;;;4.50;1.75;;;3.70;93.00;;;;;;5079314;28;20207;-80
2024/01/21 10:25:48;;;;;;;1.85;1.75;;;3.70;93.20;;;;;;5079355;28;20205;-80
2024/01/21 10:28:16;;;;;;;3.28;2.80;;;3.70;93.10;;;;;;5079536;28;20239;-81
2024/01/21 10:30:44;;;;;;;5.30;2.28;;;3.60;93.10;;;;;;5079747;28;20258;-81
2024/01/21 10:33:11;;;;;;;1.83;1.60;;;3.60;93.20;;;;;;5080004;28;20202;-81
2024/01/21 10:35:39;;;;;;;7.45;3.92;;;3.50;93.00;;;;;;5074977;28;20194;-83
2024/01/21 10:38:10;;;;;;;4.13;2.88;;;3.50;93.50;;;;;;5081776;28;20360;-82
2024/01/21 10:40:43;;;;;;;3.17;2.90;;;3.40;93.30;;;;;;5085213;28;20221;-78
2024/01/21 10:43:13;;;;;;;1.98;1.77;;;3.40;93.70;;;;;;5092796;28;20241;-79
2024/01/21 10:45:43;;;;;;;5.03;2.80;;;3.40;94.10;;;;;;5075105;28;20194;-81
2024/01/21 10:48:11;;;;;;;2.97;2.15;;;3.30;94.10;;;;;;5079871;28;20252;-82
2024/01/21 10:50:40;;;;;;;7.05;3.05;;;3.30;94.60;;;;;;5078781;28;20218;-82
2024/01/21 10:53:10;;;;;;;4.10;3.70;;;3.20;94.90;;;;;;5078497;28;20206;-82
2024/01/21 10:55:39;;;;;;;1.45;1.15;;;3.20;95.60;;;;;;5079278;28;20199;-82
2024/01/21 10:58:06;;;;;;;2.85;1.77;;;3.20;96.80;;;;;;5079099;28;20215;-82
2024/01/21 11:00:35;;;;;;;2.80;1.30;;;3.30;98.50;;;;;;5079008;28;20581;-82
2024/01/21 11:03:23;;;;;;;3.38;2.30;;;3.40;99.90;;;;;;5079320;28;20202;-82
2024/01/21 11:05:53;;;;;;;6.07;3.17;;;3.40;99.90;;;;;;5072917;28;20268;-83
2024/01/21 11:08:23;;;;;;;3.25;2.95;;;3.40;99.90;;;;;;5085141;28;20207;-82
2024/01/21 11:10:58;;;;;;;4.88;2.05;;;3.30;99.90;;;;;;5085966;28;20230;-81
2024/01/21 11:13:41;;;;;;;7.57;1.85;;;3.30;99.90;;;;;;5086702;28;20201;-80
2024/01/21 11:16:11;;;;;;;6.03;3.33;;;3.30;99.90;;;;;;5085347;28;20206;-82
2024/01/21 11:18:38;;;;;;;2.15;1.75;;;3.40;99.90;;;;;;5086348;28;20220;-82
2024/01/21 11:21:05;;;;;;;3.35;3.00;;;3.40;99.90;;;;;;5088045;28;20222;-81
2024/01/21 11:23:34;;;;;;;2.35;2.05;;;3.30;99.90;;;;;;5087189;28;20262;-81
2024/01/21 11:26:01;;;;;;;2.90;1.63;;;3.20;99.90;;;;;;5086149;28;20198;-79
2024/01/21 11:28:30;;;;;;;4.65;2.47;;;3.20;99.90;;;;;;5087382;28;20191;-80
2024/01/21 11:31:01;;;;;;;1.77;1.67;;;3.20;99.90;;;;;;5088445;28;20307;-81
2024/01/21 11:33:31;;;;;;;1.17;1.17;;;3.20;99.90;;;;;;5088939;28;20205;-81
2024/01/21 11:35:59;;;;;;;5.45;3.15;;;3.10;99.90;;;;;;5087866;28;20198;-80
2024/01/21 11:38:27;;;;;;;0.80;0.80;;;3.10;99.90;;;;;;5085605;28;20218;-82
2024/01/21 11:41:02;;;;;;;3.83;1.35;;;3.00;99.90;;;;;;5086448;28;20222;-81
2024/01/21 11:43:31;;;;;;;1.55;1.45;;;3.00;99.90;;;;;;5084925;28;20233;-82
2024/01/21 11:45:58;;;;;;;5.75;2.05;;;3.00;99.90;;;;;;5088521;28;20224;-82
2024/01/21 11:48:31;;;;;;;3.58;2.15;;;3.00;99.90;;;;;;5087404;28;20194;-80
2024/01/21 11:50:58;;;;;;;3.50;2.63;;;3.00;99.90;;;;;;5085797;28;20357;-81
2024/01/21 11:53:25;;;;;;;1.00;0.90;;;3.10;99.90;;;;;;5087537;28;20202;-81
2024/01/21 11:55:52;;;;;;;3.90;2.95;;;3.10;99.90;;;;;;5088347;28;20198;-83
2024/01/21 11:58:19;;;;;;;3.35;3.05;;;3.20;99.90;;;;;;5086984;28;20233;-83
2024/01/21 12:00:46;;;;;;;6.70;3.28;;;3.20;99.90;;;;;;5078745;28;20270;-80
2024/01/21 12:03:13;;;;;;;1.25;1.15;;;3.30;99.90;;;;;;5087065;28;20214;-81
2024/01/21 12:05:42;;;;;;;3.53;2.70;;;3.30;99.90;;;;;;5087600;28;20261;-81
2024/01/21 12:08:10;;;;;;;2.00;1.10;;;3.30;99.90;;;;;;5086085;28;20208;-80
2024/01/21 12:10:37;;;;;;;1.95;1.75;;;3.30;99.90;;;;;;5085378;28;20218;-83
2024/01/21 12:13:07;;;;;;;2.47;2.28;;;3.40;99.90;;;;;;5086043;28;20221;-82
2024/01/21 12:15:36;;;;;;;6.32;4.65;;;3.50;99.90;;;;;;5087411;28;20195;-80
2024/01/21 12:18:04;;;;;;;4.63;2.33;;;3.40;99.90;;;;;;5089256;28;20202;-81
2024/01/21 12:20:31;;;;;;;17.15;4.07;;;3.40;99.90;;;;;;5088004;28;20225;-80
2024/01/21 12:22:59;;;;;;;2.30;2.15;;;3.40;99.90;;;;;;5086735;28;20213;-80
2024/01/21 12:25:26;;;;;;;3.17;1.95;;;3.50;99.90;;;;;;5090113;28;20198;-81
2024/01/21 12:27:58;;;;;;;3.22;1.45;;;3.60;99.90;;;;;;5091077;28;20267;-81
2024/01/21 12:30:26;;;;;;;3.55;2.88;;;3.60;99.90;;;;;;5087035;28;20214;-83
2024/01/21 12:32:54;;;;;;;5.68;5.20;;;3.60;99.90;;;;;;5089507;28;20191;-80
2024/01/21 12:35:22;;;;;;;3.97;3.05;;;3.60;99.90;;;;;;5090145;28;20197;-81
2024/01/21 12:37:49;;;;;;;2.95;1.70;;;3.70;99.90;;;;;;5089391;28;20202;-82
2024/01/21 12:40:18;;;;;;;2.55;2.30;;;3.60;99.90;;;;;;5090218;28;20226;-82
2024/01/21 12:42:44;;;;;;;1.15;1.05;;;3.70;99.90;;;;;;5088003;28;20191;-81
2024/01/21 12:45:11;;;;;;;4.50;2.47;;;3.70;99.90;;;;;;5089175;28;20598;-82
2024/01/21 12:47:39;;;;;;;2.05;1.83;;;3.70;99.90;;;;;;5087143;28;20445;-81
2024/01/21 12:50:08;;;;;;;3.95;2.95;;;3.70;99.90;;;;;;5086542;28;20197;-81
2024/01/21 12:52:35;;;;;;;7.68;2.85;;;3.80;99.90;;;;;;5086435;28;20187;-82
2024/01/21 12:55:01;;;;;;;3.70;3.40;;;3.80;99.90;;;;;;5086307;28;20639;-82
2024/01/21 12:57:30;;;;;;;3.33;2.33;;;3.80;99.90;;;;;;5086322;28;20297;-82
2024/01/21 12:59:57;;;;;;;6.93;5.10;;;3.90;99.90;;;;;;5089888;28;20282;-79